createdAt,value
2023-01-05T00:01:15.329Z,7.04
2023-01-05T00:06:15.317Z,7.2
2023-01-05T00:11:15.291Z,7.41
2023-01-05T00:16:15.381Z,7.09
2023-01-05T00:21:15.333Z,7.27
2023-01-05T00:26:15.326Z,6.97
2023-01-05T00:31:15.303Z,6.83
2023-01-05T00:36:15.331Z,6.78
2023-01-05T00:41:15.321Z,7.03
2023-01-05T00:46:15.369Z,6.78
2023-01-05T00:51:15.312Z,6.94
2023-01-05T00:56:15.304Z,6.58
2023-01-05T01:01:15.365Z,6.77
2023-01-05T01:06:15.317Z,6.46
2023-01-05T01:11:15.340Z,6.08
2023-01-05T01:16:15.402Z,6.18
2023-01-05T01:21:15.315Z,6.23
2023-01-05T01:26:15.322Z,6.02
2023-01-05T01:31:15.371Z,5.65
2023-01-05T01:36:15.325Z,5.79
2023-01-05T01:41:15.362Z,5.61
2023-01-05T01:46:15.348Z,5.33
2023-01-05T01:51:15.330Z,5.41
2023-01-05T01:56:15.365Z,5.33
2023-01-05T02:01:15.384Z,5.42
2023-01-05T02:06:15.338Z,5.13
2023-01-05T02:11:15.366Z,5.14
2023-01-05T02:16:15.378Z,4.99
2023-01-05T02:21:17.075Z,4.7
2023-01-05T02:26:15.346Z,4.67
2023-01-05T02:31:15.437Z,4.58
2023-01-05T02:36:15.372Z,4.57
2023-01-05T02:41:15.362Z,4.53
2023-01-05T02:46:15.426Z,4.8
2023-01-05T02:51:15.355Z,4.54
2023-01-05T02:56:15.347Z,4.45
2023-01-05T03:01:15.464Z,4.08
2023-01-05T03:06:15.393Z,3.98
2023-01-05T03:11:15.423Z,3.92
2023-01-05T03:16:15.395Z,3.75
2023-01-05T03:21:15.370Z,3.48
2023-01-05T03:26:15.382Z,3.37
2023-01-05T03:31:15.391Z,3.08
2023-01-05T03:41:15.390Z,2.96
2023-01-05T03:46:15.456Z,2.84
2023-01-05T03:51:15.406Z,2.75
2023-01-05T03:56:15.415Z,2.72
2023-01-05T04:01:15.479Z,2.68
2023-01-05T04:06:15.428Z,2.98
2023-01-05T04:11:15.413Z,2.79
2023-01-05T04:16:15.429Z,2.92
2023-01-05T04:21:15.396Z,3.24
2023-01-05T04:26:15.396Z,3.23
2023-01-05T04:31:15.440Z,3.4
2023-01-05T04:36:15.391Z,3.42
2023-01-05T04:41:15.438Z,3.47
2023-01-05T04:46:15.511Z,3.82
2023-01-05T04:51:15.438Z,4.11
2023-01-05T04:56:15.436Z,4.29
2023-01-05T05:01:15.641Z,4.7
2023-01-05T05:06:15.454Z,4.59
2023-01-05T05:11:15.410Z,4.65
2023-01-05T05:16:15.458Z,4.57
2023-01-05T05:21:15.446Z,4.73
2023-01-05T05:26:15.433Z,4.94
2023-01-05T05:31:15.474Z,4.17
2023-01-05T05:36:15.431Z,4.17
2023-01-05T05:41:15.472Z,4.12
2023-01-05T05:46:15.501Z,3.8
2023-01-05T05:51:15.446Z,3.83
2023-01-05T05:56:15.448Z,3.79
2023-01-05T06:01:15.491Z,4.09
2023-01-05T06:06:15.416Z,4.33
2023-01-05T06:11:15.473Z,3.99
2023-01-05T06:16:15.480Z,3.28
2023-01-05T06:21:15.457Z,3.82
2023-01-05T06:26:15.454Z,3.5
2023-01-05T06:31:15.540Z,3.14
2023-01-05T06:36:15.481Z,3.38
2023-01-05T06:41:15.488Z,3.5
2023-01-05T06:46:15.473Z,3.47
2023-01-05T06:51:15.450Z,3.93
2023-01-05T06:56:15.447Z,7.6
2023-01-05T07:01:15.529Z,6.93
2023-01-05T07:06:15.447Z,4.64
2023-01-05T07:11:15.483Z,3.94
2023-01-05T07:16:15.452Z,5.25
2023-01-05T07:21:15.459Z,6.32
2023-01-05T07:26:15.458Z,7.55
2023-01-05T07:31:15.490Z,6.86
2023-01-05T07:36:15.498Z,9.07
2023-01-05T07:41:15.470Z,8.11
2023-01-05T07:46:15.532Z,4.16
2023-01-05T07:51:15.486Z,3.58
2023-01-05T07:56:15.498Z,2.34
2023-01-05T08:01:15.657Z,1.97
2023-01-05T08:06:15.458Z,1.54
2023-01-05T08:11:15.495Z,0.98
2023-01-05T08:16:15.553Z,1.01
2023-01-05T08:21:15.481Z,1.08
2023-01-05T08:26:15.475Z,0.9
2023-01-05T08:31:15.567Z,0.81
2023-01-05T08:36:15.516Z,0.74
2023-01-05T08:41:15.537Z,0.62
2023-01-05T08:46:15.574Z,0.56
2023-01-05T08:51:15.489Z,0.75
2023-01-05T08:56:15.484Z,0.79
2023-01-05T09:01:15.583Z,1.18
2023-01-05T09:06:15.512Z,1.11
2023-01-05T09:11:15.535Z,1.31
2023-01-05T09:16:16.786Z,1.12
2023-01-05T09:21:15.521Z,1.79
2023-01-05T09:26:15.503Z,1.6
2023-01-05T09:31:15.573Z,1.44
2023-01-05T09:36:15.515Z,1.35
2023-01-05T09:41:15.621Z,0.95
2023-01-05T09:46:15.578Z,0.89
2023-01-05T09:51:15.564Z,0.94
2023-01-05T09:56:28.121Z,4.07
2023-01-05T10:01:15.570Z,2.47
2023-01-05T10:06:15.552Z,1.02
2023-01-05T10:11:15.509Z,1.89
2023-01-05T10:16:15.589Z,1.16
2023-01-05T10:21:15.586Z,1.33
2023-01-05T10:26:15.549Z,1.15
2023-01-05T10:31:15.605Z,1.34
2023-01-05T10:36:19.306Z,1.65
2023-01-05T10:41:15.571Z,1.25
2023-01-05T10:51:15.538Z,1.51
2023-01-05T10:56:15.580Z,1.61
2023-01-05T11:01:15.688Z,1.7
2023-01-05T11:06:15.561Z,1.68
2023-01-05T11:11:15.572Z,2.21
2023-01-05T11:16:15.693Z,4.14
2023-01-05T11:21:15.692Z,2.24
2023-01-05T11:26:15.577Z,2.74
2023-01-05T11:31:15.647Z,1.79
2023-01-05T11:36:15.593Z,1.59
2023-01-05T11:41:15.607Z,1.45
2023-01-05T11:46:15.665Z,1.53
2023-01-05T11:51:15.585Z,1.37
2023-01-05T11:56:15.553Z,1.77
2023-01-05T12:01:15.612Z,2.37
2023-01-05T12:06:15.572Z,3.02
2023-01-05T12:11:15.570Z,6.68
2023-01-05T12:16:15.665Z,6.13
2023-01-05T12:21:15.615Z,3.78
2023-01-05T12:26:15.564Z,4.5
2023-01-05T12:36:15.628Z,1.98
2023-01-05T12:41:15.617Z,1.9
2023-01-05T12:46:15.625Z,1.83
2023-01-05T12:51:15.668Z,1.82
2023-01-05T12:56:15.576Z,1.82
2023-01-05T13:01:15.648Z,1.93
2023-01-05T13:06:15.601Z,2.3
2023-01-05T13:11:15.636Z,2.54
2023-01-05T13:16:15.659Z,4.32
2023-01-05T13:21:15.621Z,3.56
2023-01-05T13:26:15.638Z,1.95
2023-01-05T13:31:17.636Z,1.67
2023-01-05T13:36:15.611Z,1.05
2023-01-05T13:41:15.624Z,1.14
2023-01-05T13:46:15.654Z,1.84
2023-01-05T13:51:15.644Z,3.14
2023-01-05T13:56:15.651Z,2.2
2023-01-05T14:01:15.763Z,9.35
2023-01-05T14:06:15.641Z,2.25
2023-01-05T14:11:15.600Z,2.64
2023-01-05T14:16:15.682Z,4.14
2023-01-05T14:21:15.653Z,4.54
2023-01-05T14:26:15.612Z,2.82
2023-01-05T14:31:15.718Z,3.55
2023-01-05T14:36:15.617Z,6.07
2023-01-05T14:41:15.663Z,5.79
2023-01-05T14:46:15.698Z,7.93
2023-01-05T14:51:15.631Z,5.63
2023-01-05T14:56:15.691Z,4.45
2023-01-05T15:01:15.650Z,3.08
2023-01-05T15:06:15.634Z,2.63
2023-01-05T15:11:15.646Z,3.32
2023-01-05T15:16:15.654Z,5.72
2023-01-05T15:21:15.659Z,5.69
2023-01-05T15:26:15.676Z,5.05
2023-01-05T15:31:15.674Z,4.31
2023-01-05T15:36:15.666Z,3.85
2023-01-05T15:41:15.702Z,2.97
2023-01-05T15:46:15.666Z,3.37
2023-01-05T15:51:15.655Z,2.77
2023-01-05T15:56:15.645Z,2.5
2023-01-05T16:01:15.774Z,3.35
2023-01-05T16:06:15.658Z,3.91
2023-01-05T16:11:15.661Z,4.71
2023-01-05T16:16:24.633Z,5.28
2023-01-05T16:21:15.669Z,5.86
2023-01-05T16:26:15.660Z,7.09
2023-01-05T16:31:15.708Z,5.04
2023-01-05T16:36:15.672Z,3.47
2023-01-05T16:41:15.693Z,3.01
2023-01-05T16:46:17.930Z,3.34
2023-01-05T16:51:15.704Z,3.18
2023-01-05T16:56:15.697Z,3.97
2023-01-05T17:01:15.784Z,2.87
2023-01-05T17:06:15.690Z,3.11
2023-01-05T17:11:15.711Z,4.12
2023-01-05T17:16:15.743Z,3.8
2023-01-05T17:21:15.701Z,3.19
2023-01-05T17:26:15.700Z,3.83
2023-01-05T17:31:15.722Z,3.15
2023-01-05T17:41:16.029Z,4.38
2023-01-05T17:46:15.750Z,5.36
2023-01-05T17:51:15.755Z,4.22
2023-01-05T17:56:16.330Z,4.88
2023-01-05T18:01:15.784Z,4.09
2023-01-05T18:06:15.727Z,3.99
2023-01-05T18:11:16.494Z,4.49
2023-01-05T18:16:15.791Z,3.18
2023-01-05T18:21:15.720Z,2.7
2023-01-05T18:26:15.744Z,2.88
2023-01-05T18:31:15.746Z,2.71
2023-01-05T18:36:15.728Z,2.57
2023-01-05T18:41:15.726Z,2.62
2023-01-05T18:46:15.794Z,2.54
2023-01-05T18:51:15.720Z,2.42
2023-01-05T18:56:15.753Z,2.44
2023-01-05T19:01:15.835Z,2.31
2023-01-05T19:06:15.971Z,2.45
2023-01-05T19:11:15.772Z,2.42
2023-01-05T19:16:15.794Z,2.16
2023-01-05T19:21:15.799Z,2.26
2023-01-05T19:26:15.771Z,2.65
2023-01-05T19:31:15.810Z,2.53
2023-01-05T19:36:15.737Z,2.44
2023-01-05T19:41:15.787Z,2.42
2023-01-05T19:46:15.843Z,2.62
2023-01-05T19:51:15.749Z,3.16
2023-01-05T19:56:15.752Z,3.27
2023-01-05T20:01:15.808Z,3.03
2023-01-05T20:06:15.754Z,2.46
2023-01-05T20:11:15.753Z,2.16
2023-01-05T20:16:15.852Z,2.28
2023-01-05T20:21:15.787Z,2.34
2023-01-05T20:26:15.775Z,2.3
2023-01-05T20:31:15.803Z,2.21
2023-01-05T20:36:15.752Z,2.39
2023-01-05T20:41:15.778Z,2.61
2023-01-05T20:46:15.775Z,2.52
2023-01-05T20:51:15.795Z,2.38
2023-01-05T20:56:15.757Z,2.26
2023-01-05T21:01:15.792Z,2.26
2023-01-05T21:06:15.775Z,2.11
2023-01-05T21:11:15.943Z,2.1
2023-01-05T21:16:15.862Z,1.9
2023-01-05T21:21:15.808Z,1.74
2023-01-05T21:26:15.986Z,1.74
2023-01-05T21:31:15.842Z,2.06
2023-01-05T21:36:15.798Z,2.22
2023-01-05T21:41:15.834Z,2.47
2023-01-05T21:46:15.817Z,2.23
2023-01-05T21:51:15.820Z,2.04
2023-01-05T21:56:15.809Z,2.04
2023-01-05T22:01:15.885Z,1.99
2023-01-05T22:06:15.797Z,2.08
2023-01-05T22:11:15.817Z,2.04
2023-01-05T22:16:15.841Z,2.17
2023-01-05T22:21:15.849Z,2.04
2023-01-05T22:26:15.815Z,2.17
2023-01-05T22:31:15.867Z,2.34
2023-01-05T22:36:15.838Z,2.53
2023-01-05T22:41:15.845Z,2.39
2023-01-05T22:46:15.855Z,2.17
2023-01-05T22:51:15.861Z,2.07
2023-01-05T22:56:15.873Z,2.04
2023-01-05T23:01:15.904Z,2.04
2023-01-05T23:06:15.842Z,2.16
2023-01-05T23:11:15.850Z,2.03
2023-01-05T23:16:15.916Z,2.17
2023-01-05T23:21:15.860Z,1.88
2023-01-05T23:26:15.870Z,1.96
2023-01-05T23:31:15.904Z,1.8
2023-01-05T23:36:15.824Z,1.74
2023-01-05T23:41:15.843Z,1.73
2023-01-05T23:46:15.907Z,1.83
2023-01-05T23:51:15.876Z,1.87
2023-01-05T23:56:15.837Z,1.98
